• Join FlightAware (Why Join?)
  • Login
  • US Flag 
08:15PM EST


 

Airport Tracker/Info


-or-


 

Live Flight TrackerFlight Track Log ✈ UPS1553 ✈ 11-Feb-2014 ✈ KNGU - KSDF

Flight Track Log - Related Links

Times and Time Zones

All times are in EST time to prevent confusion due to time zone crossing. See the UPS1553 flight status page for this flight to view local times or setup timezone preferences in your user account.

Time Position Orientation Groundspeed Altitude Reporting Facility
EST Latitude Longitude Course Direction KTS MPH feet Rate Location/Type
12:29PM 36.9364 -76.2778 247° West 167 192 900  Level Washington Center
12:30PM 36.9928 -76.2525 20° North 249 287 5,700 4,140 Climbing Washington Center
12:32PM 36.9733 -76.3900 260° West 261 300 13,400 3,660 Climbing Washington Center
12:33PM 37.0199 -76.5526 270° West  Level Estimated
12:33PM 36.9392 -76.4989 249° West 299 344 16,100  Level Washington Center
12:34PM 37.0407 -76.6777 247° West  Level Estimated
12:34PM 36.8944 -76.5997 241° Southwest 321 369 18,100  Level Washington Center
12:35PM 37.0614 -76.8029 247° West  Level Estimated
12:35PM 36.8497 -76.7003 241° Southwest 327 376 22,100  Level Washington Center
12:36PM 36.8031 -76.8058 241° Southwest 339 390 25,700 3,300 Climbing Washington Center
12:37PM 36.7558 -76.9167 242° Southwest 349 402 28,700 2,940 Climbing Washington Center
12:38PM 36.7044 -77.0297 240° Southwest 355 409 31,700 1,620 Climbing Washington Center
12:39PM 36.6572 -77.1325 240° Southwest 360 414 32,000 120 Climbing Washington Center
12:40PM 36.6081 -77.2375 240° Southwest 355 409 32,000  Level Washington Center
12:41PM 36.5586 -77.3425 240° Southwest 355 409 32,000 60 Level Washington Center
12:42PM 36.5108 -77.4500 241° Southwest 355 409 32,200 900 Climbing Washington Center
12:43PM 36.4592 -77.5572 239° Southwest 355 409 33,900 1,860 Climbing Washington Center
12:44PM 36.4200 -77.6467 241° Southwest 355 409 36,000 1,980 Climbing Washington Center
12:45PM 36.3725 -77.7458 239° Southwest 349 402 38,000 960 Climbing Washington Center
12:46PM 36.3289 -77.8453 241° Southwest 343 395 38,000  Level Washington Center
12:47PM 36.2792 -77.9444 238° Southwest 337 388 38,000  Level Washington Center
12:48PM 36.2353 -78.0408 241° Southwest 327 376 38,000  Level Washington Center
12:49PM 36.2081 -78.1481 253° West 327 376 38,000  Level Washington Center
12:50PM 36.1911 -78.2583 259° West 327 376 38,000  Level Washington Center
12:51PM 36.1719 -78.3683 258° West 332 382 38,000  Level Washington Center
12:52PM 36.1547 -78.4758 259° West 332 382 38,000  Level Washington Center
12:53PM 36.1375 -78.5858 259° West 332 382 38,000  Level Washington Center
12:54PM 36.1181 -78.6956 258° West 332 382 38,000  Level Washington Center
12:55PM 36.1003 -78.8081 259° West 332 382 38,000  Level Washington Center
12:56PM 36.0828 -78.9153 259° West 332 382 38,000  Level Washington Center
12:57PM 36.0631 -79.0247 257° West 332 382 38,000  Level Washington Center
12:58PM 36.0453 -79.1319 258° West 332 382 38,000  Level Washington Center
12:59PM 36.0253 -79.2442 258° West 332 382 38,000  Level Washington Center
01:02PM 35.9753 -79.5228 258° West 325 374 38,000  Level Atlanta Center
01:03PM 35.9689 -79.6336 266° West 325 374 38,000  Level Atlanta Center
01:04PM 35.9914 -79.7400 285° West 325 374 38,000  Level Atlanta Center
01:05PM 36.0161 -79.8544 285° West 331 381 38,000  Level Atlanta Center
01:06PM 36.0386 -79.9611 285° West 331 381 38,000  Level Atlanta Center
01:07PM 36.0583 -80.0603 284° West 337 388 38,000  Level Atlanta Center
01:08PM 36.0808 -80.1722 284° West 337 388 38,000  Level Atlanta Center
01:09PM 36.1031 -80.2842 284° West 337 388 38,000  Level Atlanta Center
01:10PM 36.1208 -80.3939 281° West 337 388 38,000  Level Atlanta Center
01:11PM 36.1433 -80.5189 283° West 337 388 38,000  Level Atlanta Center
01:12PM 36.1653 -80.6283 284° West 337 388 38,000  Level Atlanta Center
01:13PM 36.1850 -80.7381 283° West 332 382 38,000  Level Atlanta Center
01:14PM 36.2067 -80.8481 284° West 332 382 38,000  Level Atlanta Center
01:15PM 36.2278 -80.9475 285° West 332 382 38,000  Level Atlanta Center
01:16PM 36.2472 -81.0575 282° West 332 382 38,000  Level Atlanta Center
01:17PM 36.2667 -81.1675 282° West 332 382 38,000  Level Atlanta Center
01:18PM 36.2881 -81.2775 284° West 332 382 38,000  Level Atlanta Center
01:19PM 36.3092 -81.3875 283° West 332 382 38,000  Level Atlanta Center
01:20PM 36.3261 -81.4953 281° West 332 382 38,000  Level Atlanta Center
01:21PM 36.3469 -81.6081 283° West 337 388 38,000  Level Atlanta Center
01:22PM 36.3658 -81.7208 282° West 337 388 38,000  Level Atlanta Center
01:23PM 36.3847 -81.8339 282° West 337 388 38,000  Level Atlanta Center
01:24PM 36.4056 -81.9544 282° West 337 388 38,000 -120 Level Atlanta Center
01:25PM 36.4261 -82.0675 283° West 337 388 37,800 -600 Descending Atlanta Center
01:26PM 36.4508 -82.1803 285° West 337 388 36,800 -1,020 Descending Atlanta Center
01:27PM 36.4858 -82.2906 292° West 343 395 35,800 -1,200 Descending Atlanta Center
01:28PM 36.5186 -82.3983 291° West 343 395 34,500 -1,020 Descending Atlanta Center
01:29PM 36.5933 -82.5744 298° West 356 410 33,000 -540 Descending Indianapolis Center
01:30PM 36.6519 -82.7019 300° West 362 417 33,000  Level Indianapolis Center
01:32PM 36.7011 -82.8106 299° West 360 414 33,000  Level Indianapolis Center
01:33PM 36.7519 -82.9200 300° West 360 414 33,000  Level Indianapolis Center
01:34PM 36.8025 -83.0308 300° West 360 414 33,000 -180 Level Indianapolis Center
01:35PM 36.8522 -83.1400 300° West 358 412 32,700 -660 Descending Indianapolis Center
01:36PM 36.9031 -83.2517 300° West 363 418 31,700 -1,020 Descending Indianapolis Center
01:37PM 36.9564 -83.3694 300° West 381 438 30,700 -840 Descending Indianapolis Center
01:38PM 37.0094 -83.4881 299° West 388 447 30,000 -780 Descending Indianapolis Center
01:39PM 37.0625 -83.6067 299° West 389 448 29,200 -1,080 Descending Indianapolis Center
01:40PM 37.1161 -83.7247 300° West 389 448 27,800 -2,100 Descending Indianapolis Center
01:41PM 37.1772 -83.8608 299° West 384 442 25,000 -2,580 Descending Indianapolis Center
01:42PM 37.2278 -83.9772 299° West 381 438 22,500 -2,460 Descending Indianapolis Center
01:43PM 37.2789 -84.0911 299° West 375 432 20,000 -2,280 Descending Indianapolis Center
01:44PM 37.3267 -84.2019 298° West 365 420 17,900 -1,620 Descending Indianapolis Center
01:45PM 37.3744 -84.3100 299° West 356 410 16,700 -1,140 Descending Indianapolis Center
01:46PM 37.4214 -84.4181 299° West 353 406 15,600 -1,020 Descending Indianapolis Center
01:52PM 37.7032 -85.0198 299° West 332 382 9,500 -900 Descending FlightAware ADS-B
01:53PM 37.7851 -85.1341 312° West 333 383 9,500  Level FlightAware ADS-B
01:54PM 37.8448 -85.2166 313° West 280 322 9,500 -420 Level FlightAware ADS-B
01:55PM 37.8935 -85.2843 312° West 247 284 8,700 -960 Descending FlightAware ADS-B
01:56PM 37.9396 -85.3483 312° West 256 295 7,600 -960 Descending FlightAware ADS-B
01:57PM 37.9844 -85.4104 312° West 256 295 6,900 -660 Descending FlightAware ADS-B
01:58PM 38.0345 -85.4816 312° West 254 292 6,300 -600 Descending FlightAware ADS-B
01:59PM 38.0825 -85.5480 313° West 254 292 5,700 -420 Descending FlightAware ADS-B
02:00PM 38.1396 -85.5938 328° Northwest 253 291 5,500 -120 Descending FlightAware ADS-B
02:01PM 38.2052 -85.6270 338° Northwest 253 291 5,500 -900 Level FlightAware ADS-B
02:02PM 38.2720 -85.6485 346° North 241 277 3,800 -1,020 Descending FlightAware ADS-B
02:03PM 38.3327 -85.6707 344° North 219 252 3,500 -540 Descending FlightAware ADS-B
02:04PM 38.3681 -85.7073 321° Northwest 212 244 2,900 -780 Descending FlightAware ADS-B
02:04PM 38.3672 -85.7326 267° West 181 208 2,600 60 Descending FlightAware ADS-B
02:05PM 38.3333 -85.7833 267° West 177 204 3,000 120 Climbing Louisville TRACON
02:06PM 38.2997 -85.7869 185° South 181 208 3,000 -300 Level Indianapolis Center
02:07PM 38.2578 -85.7719 164° South 166 191 2,400 -600 Descending Indianapolis Center